sensor_id;sensor_type;location;lat;lon;timestamp;pressure;altitude;pressure_sealevel;temperature;humidity
55761;BME280;41679;51.440;-2.012;2022-08-24T00:00:14;100463.28;;;19.31;100.00
55761;BME280;41679;51.440;-2.012;2022-08-24T00:02:40;100458.06;;;19.29;100.00
55761;BME280;41679;51.440;-2.012;2022-08-24T00:05:07;100467.19;;;19.35;100.00
55761;BME280;41679;51.440;-2.012;2022-08-24T00:07:34;100458.63;;;19.31;100.00
55761;BME280;41679;51.440;-2.012;2022-08-24T00:09:59;100456.41;;;19.28;100.00
55761;BME280;41679;51.440;-2.012;2022-08-24T00:12:26;100451.19;;;19.32;100.00
55761;BME280;41679;51.440;-2.012;2022-08-24T00:14:53;100448.19;;;19.33;100.00
55761;BME280;41679;51.440;-2.012;2022-08-24T00:17:19;100447.56;;;19.26;100.00
55761;BME280;41679;51.440;-2.012;2022-08-24T00:19:46;100454.13;;;19.20;100.00
55761;BME280;41679;51.440;-2.012;2022-08-24T00:22:11;100442.88;;;19.21;100.00
55761;BME280;41679;51.440;-2.012;2022-08-24T00:24:39;100453.03;;;19.21;100.00
55761;BME280;41679;51.440;-2.012;2022-08-24T00:27:05;100453.03;;;19.21;100.00
55761;BME280;41679;51.440;-2.012;2022-08-24T00:29:31;100451.63;;;19.18;100.00
55761;BME280;41679;51.440;-2.012;2022-08-24T00:31:57;100452.16;;;19.15;100.00
55761;BME280;41679;51.440;-2.012;2022-08-24T00:34:22;100454.66;;;19.17;100.00
55761;BME280;41679;51.440;-2.012;2022-08-24T00:36:48;100446.41;;;19.17;100.00
55761;BME280;41679;51.440;-2.012;2022-08-24T00:39:14;100447.00;;;19.19;100.00
55761;BME280;41679;51.440;-2.012;2022-08-24T00:41:42;100447.28;;;19.22;100.00
55761;BME280;41679;51.440;-2.012;2022-08-24T00:44:08;100439.88;;;19.23;100.00
55761;BME280;41679;51.440;-2.012;2022-08-24T00:49:19;100431.63;;;19.23;100.00
55761;BME280;41679;51.440;-2.012;2022-08-24T00:51:54;100433.00;;;19.26;100.00
55761;BME280;41679;51.440;-2.012;2022-08-24T00:54:24;100424.47;;;19.22;100.00
55761;BME280;41679;51.440;-2.012;2022-08-24T00:56:54;100421.19;;;19.25;100.00
55761;BME280;41679;51.440;-2.012;2022-08-24T00:59:24;100416.84;;;19.29;100.00
55761;BME280;41679;51.440;-2.012;2022-08-24T01:01:51;100426.72;;;19.30;100.00
55761;BME280;41679;51.440;-2.012;2022-08-24T01:04:27;100426.16;;;19.28;100.00
55761;BME280;41679;51.440;-2.012;2022-08-24T01:06:55;100422.28;;;19.24;100.00
55761;BME280;41679;51.440;-2.012;2022-08-24T01:09:21;100428.88;;;19.23;100.00
55761;BME280;41679;51.440;-2.012;2022-08-24T01:11:47;100430.22;;;19.20;100.00
55761;BME280;41679;51.440;-2.012;2022-08-24T01:14:13;100429.34;;;19.15;100.00
55761;BME280;41679;51.440;-2.012;2022-08-24T01:16:39;100435.91;;;19.09;100.00
55761;BME280;41679;51.440;-2.012;2022-08-24T01:19:43;100436.38;;;19.00;100.00
55761;BME280;41679;51.440;-2.012;2022-08-24T01:24:49;100432.47;;;18.96;100.00
55761;BME280;41679;51.440;-2.012;2022-08-24T01:27:15;100438.97;;;18.85;100.00
55761;BME280;41679;51.440;-2.012;2022-08-24T01:29:41;100440.44;;;18.71;100.00
55761;BME280;41679;51.440;-2.012;2022-08-24T01:32:08;100437.38;;;18.67;100.00
55761;BME280;41679;51.440;-2.012;2022-08-24T01:34:35;100442.88;;;18.67;100.00
55761;BME280;41679;51.440;-2.012;2022-08-24T01:37:01;100445.28;;;18.64;100.00
55761;BME280;41679;51.440;-2.012;2022-08-24T01:39:33;100433.81;;;18.67;100.00
55761;BME280;41679;51.440;-2.012;2022-08-24T01:42:02;100437.09;;;18.69;100.00
55761;BME280;41679;51.440;-2.012;2022-08-24T01:44:30;100439.56;;;18.65;100.00
55761;BME280;41679;51.440;-2.012;2022-08-24T01:46:59;100444.16;;;18.59;100.00
55761;BME280;41679;51.440;-2.012;2022-08-24T01:49:28;100443.28;;;18.54;100.00
55761;BME280;41679;51.440;-2.012;2022-08-24T01:51:54;100429.72;;;18.47;100.00
55761;BME280;41679;51.440;-2.012;2022-08-24T01:54:19;100445.69;;;18.50;100.00
55761;BME280;41679;51.440;-2.012;2022-08-24T01:56:45;100442.88;;;18.45;100.00
55761;BME280;41679;51.440;-2.012;2022-08-24T01:59:11;100444.28;;;18.48;100.00
55761;BME280;41679;51.440;-2.012;2022-08-24T02:01:40;100445.75;;;18.55;100.00
55761;BME280;41679;51.440;-2.012;2022-08-24T02:04:09;100447.63;;;18.50;100.00
55761;BME280;41679;51.440;-2.012;2022-08-24T02:06:35;100455.66;;;18.56;100.00
55761;BME280;41679;51.440;-2.012;2022-08-24T02:09:02;100452.06;;;18.56;100.00
55761;BME280;41679;51.440;-2.012;2022-08-24T02:11:27;100447.72;;;18.60;100.00
55761;BME280;41679;51.440;-2.012;2022-08-24T02:13:54;100450.94;;;18.52;100.00
55761;BME280;41679;51.440;-2.012;2022-08-24T02:16:20;100451.69;;;18.47;100.00
55761;BME280;41679;51.440;-2.012;2022-08-24T02:18:46;100449.22;;;18.46;100.00
55761;BME280;41679;51.440;-2.012;2022-08-24T02:21:12;100444.22;;;18.43;100.00
55761;BME280;41679;51.440;-2.012;2022-08-24T02:23:39;100450.28;;;18.45;100.00
55761;BME280;41679;51.440;-2.012;2022-08-24T02:26:07;100447.44;;;18.56;100.00
55761;BME280;41679;51.440;-2.012;2022-08-24T02:28:33;100440.66;;;18.64;100.00
55761;BME280;41679;51.440;-2.012;2022-08-24T02:31:00;100430.84;;;18.73;100.00
55761;BME280;41679;51.440;-2.012;2022-08-24T02:33:26;100428.38;;;18.72;100.00
55761;BME280;41679;51.440;-2.012;2022-08-24T02:35:52;100442.34;;;18.70;100.00
55761;BME280;41679;51.440;-2.012;2022-08-24T02:38:19;100439.84;;;18.69;100.00
55761;BME280;41679;51.440;-2.012;2022-08-24T02:40:45;100443.69;;;18.68;100.00
55761;BME280;41679;51.440;-2.012;2022-08-24T02:43:11;100445.28;;;18.64;100.00
55761;BME280;41679;51.440;-2.012;2022-08-24T02:45:42;100446.44;;;18.68;100.00
55761;BME280;41679;51.440;-2.012;2022-08-24T02:48:08;100448.38;;;18.67;100.00
55761;BME280;41679;51.440;-2.012;2022-08-24T02:50:45;100448.09;;;18.69;100.00
55761;BME280;41679;51.440;-2.012;2022-08-24T02:53:13;100446.19;;;18.69;100.00
55761;BME280;41679;51.440;-2.012;2022-08-24T02:55:41;100443.41;;;18.64;100.00
55761;BME280;41679;51.440;-2.012;2022-08-24T02:58:08;100443.41;;;18.64;100.00
55761;BME280;41679;51.440;-2.012;2022-08-24T03:00:34;100443.69;;;18.68;100.00
55761;BME280;41679;51.440;-2.012;2022-08-24T03:03:21;100447.31;;;18.73;100.00
55761;BME280;41679;51.440;-2.012;2022-08-24T03:05:46;100446.50;;;18.73;100.00
55761;BME280;41679;51.440;-2.012;2022-08-24T03:08:12;100439.69;;;18.75;100.00
55761;BME280;41679;51.440;-2.012;2022-08-24T03:10:37;100447.72;;;18.82;100.00
55761;BME280;41679;51.440;-2.012;2022-08-24T03:13:22;100450.91;;;18.74;100.00
55761;BME280;41679;51.440;-2.012;2022-08-24T03:15:47;100451.50;;;18.76;100.00
55761;BME280;41679;51.440;-2.012;2022-08-24T03:18:13;100443.56;;;18.79;100.00
55761;BME280;41679;51.440;-2.012;2022-08-24T03:20:38;100447.16;;;18.80;100.00
55761;BME280;41679;51.440;-2.012;2022-08-24T03:23:04;100460.56;;;18.76;100.00
55761;BME280;41679;51.440;-2.012;2022-08-24T03:25:30;100456.66;;;18.72;100.00
55761;BME280;41679;51.440;-2.012;2022-08-24T03:27:56;100451.69;;;18.69;100.00
55761;BME280;41679;51.440;-2.012;2022-08-24T03:30:22;100451.63;;;18.64;100.00
55761;BME280;41679;51.440;-2.012;2022-08-24T03:32:48;100446.91;;;18.59;100.00
55761;BME280;41679;51.440;-2.012;2022-08-24T03:35:14;100453.69;;;18.52;100.00
55761;BME280;41679;51.440;-2.012;2022-08-24T03:37:40;100443.75;;;18.46;100.00
55761;BME280;41679;51.440;-2.012;2022-08-24T03:40:07;100445.25;;;18.36;100.00
55761;BME280;41679;51.440;-2.012;2022-08-24T03:42:33;100436.66;;;18.28;100.00
55761;BME280;41679;51.440;-2.012;2022-08-24T03:44:58;100435.25;;;18.25;100.00
55761;BME280;41679;51.440;-2.012;2022-08-24T03:47:24;100434.66;;;18.23;100.00
55761;BME280;41679;51.440;-2.012;2022-08-24T03:49:49;100435.69;;;18.17;100.00
55761;BME280;41679;51.440;-2.012;2022-08-24T03:52:15;100425.22;;;18.14;100.00
55761;BME280;41679;51.440;-2.012;2022-08-24T03:54:41;100436.97;;;18.09;100.00
55761;BME280;41679;51.440;-2.012;2022-08-24T03:57:06;100441.81;;;18.02;100.00
55761;BME280;41679;51.440;-2.012;2022-08-24T03:59:31;100431.66;;;18.03;100.00
55761;BME280;41679;51.440;-2.012;2022-08-24T04:01:57;100437.72;;;18.05;100.00
55761;BME280;41679;51.440;-2.012;2022-08-24T04:04:23;100430.84;;;18.02;100.00
55761;BME280;41679;51.440;-2.012;2022-08-24T04:06:49;100439.38;;;18.06;100.00
55761;BME280;41679;51.440;-2.012;2022-08-24T04:09:14;100442.03;;;18.01;100.00
55761;BME280;41679;51.440;-2.012;2022-08-24T04:11:40;100443.16;;;18.00;100.00
55761;BME280;41679;51.440;-2.012;2022-08-24T04:14:25;100446.72;;;18.00;100.00
55761;BME280;41679;51.440;-2.012;2022-08-24T04:16:51;100441.41;;;17.93;100.00
55761;BME280;41679;51.440;-2.012;2022-08-24T04:19:17;100449.06;;;17.91;100.00
55761;BME280;41679;51.440;-2.012;2022-08-24T04:21:42;100435.34;;;17.91;100.00
55761;BME280;41679;51.440;-2.012;2022-08-24T04:24:09;100432.03;;;17.89;100.00
55761;BME280;41679;51.440;-2.012;2022-08-24T04:26:37;100437.75;;;17.88;100.00
55761;BME280;41679;51.440;-2.012;2022-08-24T04:29:04;100445.44;;;17.86;100.00
55761;BME280;41679;51.440;-2.012;2022-08-24T04:31:30;100445.97;;;17.88;100.00
55761;BME280;41679;51.440;-2.012;2022-08-24T04:33:56;100446.72;;;18.00;100.00
55761;BME280;41679;51.440;-2.012;2022-08-24T04:36:22;100450.34;;;18.06;100.00
55761;BME280;41679;51.440;-2.012;2022-08-24T04:38:48;100447.75;;;18.16;100.00
55761;BME280;41679;51.440;-2.012;2022-08-24T04:41:16;100441.44;;;18.15;100.00
55761;BME280;41679;51.440;-2.012;2022-08-24T04:43:45;100447.44;;;18.12;100.00
55761;BME280;41679;51.440;-2.012;2022-08-24T04:46:13;100439.72;;;18.09;100.00
55761;BME280;41679;51.440;-2.012;2022-08-24T04:48:44;100439.19;;;18.12;100.00
55761;BME280;41679;51.440;-2.012;2022-08-24T04:51:11;100445.28;;;18.14;100.00
55761;BME280;41679;51.440;-2.012;2022-08-24T04:53:38;100452.41;;;18.15;100.00
55761;BME280;41679;51.440;-2.012;2022-08-24T04:56:12;100449.09;;;18.13;100.00
55761;BME280;41679;51.440;-2.012;2022-08-24T04:58:38;100454.31;;;18.15;100.00
55761;BME280;41679;51.440;-2.012;2022-08-24T05:01:08;100454.25;;;18.10;100.00
55761;BME280;41679;51.440;-2.012;2022-08-24T05:03:34;100450.81;;;18.20;100.00
55761;BME280;41679;51.440;-2.012;2022-08-24T05:06:00;100453.56;;;18.20;100.00
55761;BME280;41679;51.440;-2.012;2022-08-24T05:08:25;100454.56;;;18.13;100.00
55761;BME280;41679;51.440;-2.012;2022-08-24T05:10:51;100452.09;;;18.12;100.00
55761;BME280;41679;51.440;-2.012;2022-08-24T05:13:17;100450.09;;;18.07;100.00
55761;BME280;41679;51.440;-2.012;2022-08-24T05:15:45;100447.88;;;18.04;100.00
55761;BME280;41679;51.440;-2.012;2022-08-24T05:18:12;100451.44;;;18.05;100.00
55761;BME280;41679;51.440;-2.012;2022-08-24T05:20:43;100451.97;;;18.02;100.00
55761;BME280;41679;51.440;-2.012;2022-08-24T05:23:12;100459.03;;;17.98;100.00
55761;BME280;41679;51.440;-2.012;2022-08-24T05:25:40;100454.28;;;17.93;100.00
55761;BME280;41679;51.440;-2.012;2022-08-24T05:28:06;100462.19;;;17.89;100.00
55761;BME280;41679;51.440;-2.012;2022-08-24T05:30:32;100454.56;;;17.91;100.00
55761;BME280;41679;51.440;-2.012;2022-08-24T05:32:57;100459.53;;;17.95;100.00
55761;BME280;41679;51.440;-2.012;2022-08-24T05:35:23;100464.72;;;17.91;100.00
55761;BME280;41679;51.440;-2.012;2022-08-24T05:37:48;100461.75;;;17.98;100.00
55761;BME280;41679;51.440;-2.012;2022-08-24T05:40:16;100459.03;;;17.98;100.00
55761;BME280;41679;51.440;-2.012;2022-08-24T05:42:42;100453.03;;;18.01;100.00
55761;BME280;41679;51.440;-2.012;2022-08-24T05:45:08;100450.28;;;18.01;100.00
55761;BME280;41679;51.440;-2.012;2022-08-24T05:47:34;100455.25;;;18.04;100.00
55761;BME280;41679;51.440;-2.012;2022-08-24T05:50:01;100455.59;;;18.07;100.00
55761;BME280;41679;51.440;-2.012;2022-08-24T05:52:27;100452.09;;;18.12;100.00
55761;BME280;41679;51.440;-2.012;2022-08-24T05:54:55;100460.31;;;18.12;100.00
55761;BME280;41679;51.440;-2.012;2022-08-24T05:57:22;100465.31;;;18.15;100.00
55761;BME280;41679;51.440;-2.012;2022-08-24T05:59:48;100458.72;;;18.16;100.00
55761;BME280;41679;51.440;-2.012;2022-08-24T06:02:14;100470.06;;;18.25;100.00
55761;BME280;41679;51.440;-2.012;2022-08-24T06:04:40;100465.16;;;18.27;100.00
55761;BME280;41679;51.440;-2.012;2022-08-24T06:07:06;100467.66;;;18.28;100.00
55761;BME280;41679;51.440;-2.012;2022-08-24T06:09:36;100473.41;;;18.27;100.00
55761;BME280;41679;51.440;-2.012;2022-08-24T06:12:01;100470.84;;;18.42;100.00
55761;BME280;41679;51.440;-2.012;2022-08-24T06:14:27;100475.97;;;18.55;100.00
55761;BME280;41679;51.440;-2.012;2022-08-24T06:16:53;100470.78;;;18.81;100.00
55761;BME280;41679;51.440;-2.012;2022-08-24T06:19:19;100484.50;;;19.35;100.00
55761;BME280;41679;51.440;-2.012;2022-08-24T06:21:46;100491.19;;;19.77;100.00
55761;BME280;41679;51.440;-2.012;2022-08-24T06:24:13;100494.28;;;20.33;100.00
55761;BME280;41679;51.440;-2.012;2022-08-24T06:26:43;100503.28;;;20.66;100.00
55761;BME280;41679;51.440;-2.012;2022-08-24T06:29:28;100512.53;;;20.44;100.00
55761;BME280;41679;51.440;-2.012;2022-08-24T06:31:54;100503.56;;;20.17;100.00
55761;BME280;41679;51.440;-2.012;2022-08-24T06:34:21;100508.78;;;20.13;100.00
55761;BME280;41679;51.440;-2.012;2022-08-24T06:36:46;100505.38;;;20.01;100.00
55761;BME280;41679;51.440;-2.012;2022-08-24T06:39:12;100500.91;;;19.89;100.00
55761;BME280;41679;51.440;-2.012;2022-08-24T06:41:39;100506.50;;;20.00;100.00
55761;BME280;41679;51.440;-2.012;2022-08-24T06:44:05;100499.09;;;20.05;100.00
55761;BME280;41679;51.440;-2.012;2022-08-24T06:46:31;100502.94;;;20.09;100.00
55761;BME280;41679;51.440;-2.012;2022-08-24T06:48:57;100501.56;;;20.07;100.00
55761;BME280;41679;51.440;-2.012;2022-08-24T06:51:24;100503.19;;;19.98;100.00
55761;BME280;41679;51.440;-2.012;2022-08-24T06:53:50;100509.81;;;20.07;100.00
55761;BME280;41679;51.440;-2.012;2022-08-24T06:56:16;100512.28;;;20.03;100.00
55761;BME280;41679;51.440;-2.012;2022-08-24T06:58:42;100512.00;;;20.00;100.00
55761;BME280;41679;51.440;-2.012;2022-08-24T07:01:14;100517.94;;;19.81;100.00
55761;BME280;41679;51.440;-2.012;2022-08-24T07:03:41;100513.94;;;19.67;100.00
55761;BME280;41679;51.440;-2.012;2022-08-24T07:06:08;100509.47;;;19.93;100.00
55761;BME280;41679;51.440;-2.012;2022-08-24T07:08:35;100521.00;;;19.90;100.00
55761;BME280;41679;51.440;-2.012;2022-08-24T07:11:00;100519.81;;;19.81;100.00
55761;BME280;41679;51.440;-2.012;2022-08-24T07:13:27;100527.25;;;19.80;100.00
55761;BME280;41679;51.440;-2.012;2022-08-24T07:15:55;100528.13;;;19.86;100.00
55761;BME280;41679;51.440;-2.012;2022-08-24T07:18:21;100524.06;;;19.94;100.00
55761;BME280;41679;51.440;-2.012;2022-08-24T07:20:47;100525.78;;;20.05;100.00
55761;BME280;41679;51.440;-2.012;2022-08-24T07:23:13;100532.41;;;20.09;100.00
55761;BME280;41679;51.440;-2.012;2022-08-24T07:25:42;100534.88;;;20.05;100.00
55761;BME280;41679;51.440;-2.012;2022-08-24T07:28:08;100531.06;;;20.11;100.00
55761;BME280;41679;51.440;-2.012;2022-08-24T07:30:33;100525.00;;;20.15;100.00
55761;BME280;41679;51.440;-2.012;2022-08-24T07:32:59;100537.41;;;20.17;100.00
55761;BME280;41679;51.440;-2.012;2022-08-24T07:35:27;100538.84;;;20.25;100.00
55761;BME280;41679;51.440;-2.012;2022-08-24T07:37:53;100537.22;;;20.29;100.00
55761;BME280;41679;51.440;-2.012;2022-08-24T07:40:20;100535.47;;;20.13;100.00
55761;BME280;41679;51.440;-2.012;2022-08-24T07:42:50;100548.78;;;20.26;100.00
55761;BME280;41679;51.440;-2.012;2022-08-24T07:45:16;100549.69;;;20.42;100.00
55761;BME280;41679;51.440;-2.012;2022-08-24T07:47:42;100558.25;;;20.50;100.00
55761;BME280;41679;51.440;-2.012;2022-08-24T07:50:09;100556.72;;;20.65;100.00
55761;BME280;41679;51.440;-2.012;2022-08-24T07:52:35;100557.84;;;20.69;100.00
55761;BME280;41679;51.440;-2.012;2022-08-24T07:55:00;100569.16;;;20.77;100.00
55761;BME280;41679;51.440;-2.012;2022-08-24T07:57:26;100565.69;;;21.03;100.00
55761;BME280;41679;51.440;-2.012;2022-08-24T07:59:52;100567.84;;;20.90;100.00
55761;BME280;41679;51.440;-2.012;2022-08-24T08:02:17;100565.72;;;21.13;100.00
55761;BME280;41679;51.440;-2.012;2022-08-24T08:04:42;100566.81;;;21.07;100.00
55761;BME280;41679;51.440;-2.012;2022-08-24T08:07:08;100568.41;;;20.92;100.00
55761;BME280;41679;51.440;-2.012;2022-08-24T08:09:37;100571.75;;;21.00;100.00
55761;BME280;41679;51.440;-2.012;2022-08-24T08:12:02;100565.94;;;20.96;100.00
55761;BME280;41679;51.440;-2.012;2022-08-24T08:14:28;100576.97;;;20.96;100.00
55761;BME280;41679;51.440;-2.012;2022-08-24T08:16:53;100574.25;;;21.11;100.00
55761;BME280;41679;51.440;-2.012;2022-08-24T08:19:19;100575.06;;;21.02;100.00
55761;BME280;41679;51.440;-2.012;2022-08-24T08:21:49;100573.34;;;20.90;100.00
55761;BME280;41679;51.440;-2.012;2022-08-24T08:24:36;100575.03;;;20.96;100.00
55761;BME280;41679;51.440;-2.012;2022-08-24T08:27:02;100577.22;;;20.89;100.00
55761;BME280;41679;51.440;-2.012;2022-08-24T08:29:30;100581.91;;;20.94;100.00
55761;BME280;41679;51.440;-2.012;2022-08-24T08:31:56;100586.63;;;20.93;100.00
55761;BME280;41679;51.440;-2.012;2022-08-24T08:34:21;100578.31;;;20.83;100.00
55761;BME280;41679;51.440;-2.012;2022-08-24T08:36:47;100579.88;;;20.69;100.00
55761;BME280;41679;51.440;-2.012;2022-08-24T08:39:15;100580.19;;;20.77;100.00
55761;BME280;41679;51.440;-2.012;2022-08-24T08:45:11;100576.44;;;20.99;100.00
55761;BME280;41679;51.440;-2.012;2022-08-24T08:56:15;100581.28;;;22.01;100.00
55761;BME280;41679;51.440;-2.012;2022-08-24T09:22:06;100599.22;;;23.20;100.00
55761;BME280;41679;51.440;-2.012;2022-08-24T09:24:46;100605.91;;;23.13;100.00
55761;BME280;41679;51.440;-2.012;2022-08-24T09:30:17;100596.81;;;23.08;100.00
55761;BME280;41679;51.440;-2.012;2022-08-24T09:50:02;100605.88;;;23.63;100.00
55761;BME280;41679;51.440;-2.012;2022-08-24T10:20:19;100597.75;;;24.11;100.00
55761;BME280;41679;51.440;-2.012;2022-08-24T10:22:55;100603.84;;;23.79;100.00
55761;BME280;41679;51.440;-2.012;2022-08-24T10:25:39;100599.91;;;23.85;100.00
55761;BME280;41679;51.440;-2.012;2022-08-24T10:28:35;100601.22;;;23.93;100.00
55761;BME280;41679;51.440;-2.012;2022-08-24T10:31:09;100604.44;;;24.63;100.00
55761;BME280;41679;51.440;-2.012;2022-08-24T10:33:57;100612.28;;;25.04;100.00
55761;BME280;41679;51.440;-2.012;2022-08-24T10:39:03;100635.69;;;24.74;100.00
55761;BME280;41679;51.440;-2.012;2022-08-24T10:53:30;100635.22;;;24.67;100.00
55761;BME280;41679;51.440;-2.012;2022-08-24T10:56:14;100632.91;;;24.74;100.00
55761;BME280;41679;51.440;-2.012;2022-08-24T10:58:57;100624.53;;;25.03;100.00
55761;BME280;41679;51.440;-2.012;2022-08-24T11:01:34;100639.88;;;25.20;100.00
55761;BME280;41679;51.440;-2.012;2022-08-24T11:04:11;100646.25;;;25.20;100.00
55761;BME280;41679;51.440;-2.012;2022-08-24T11:06:40;100641.88;;;24.90;100.00
55761;BME280;41679;51.440;-2.012;2022-08-24T11:09:12;100642.53;;;24.82;100.00
55761;BME280;41679;51.440;-2.012;2022-08-24T11:11:47;100641.28;;;24.93;100.00
55761;BME280;41679;51.440;-2.012;2022-08-24T11:14:27;100628.47;;;24.73;100.00
55761;BME280;41679;51.440;-2.012;2022-08-24T11:17:16;100629.19;;;24.84;100.00
55761;BME280;41679;51.440;-2.012;2022-08-24T11:19:42;100629.84;;;25.24;100.00
55761;BME280;41679;51.440;-2.012;2022-08-24T11:22:27;100636.44;;;25.47;100.00
55761;BME280;41679;51.440;-2.012;2022-08-24T11:25:08;100639.47;;;25.50;100.00
55761;BME280;41679;51.440;-2.012;2022-08-24T11:28:10;100633.97;;;25.64;100.00
55761;BME280;41679;51.440;-2.012;2022-08-24T11:30:39;100632.16;;;25.54;100.00
55761;BME280;41679;51.440;-2.012;2022-08-24T11:33:05;100624.06;;;25.39;100.00
55761;BME280;41679;51.440;-2.012;2022-08-24T11:35:47;100626.38;;;25.70;100.00
55761;BME280;41679;51.440;-2.012;2022-08-24T11:38:25;100632.25;;;25.68;100.00
55761;BME280;41679;51.440;-2.012;2022-08-24T11:41:08;100628.06;;;25.71;100.00
55761;BME280;41679;51.440;-2.012;2022-08-24T11:51:45;100631.28;;;25.97;100.00
55761;BME280;41679;51.440;-2.012;2022-08-24T12:02:04;100623.53;;;25.94;100.00
55761;BME280;41679;51.440;-2.012;2022-08-24T12:07:28;100622.94;;;25.97;100.00
55761;BME280;41679;51.440;-2.012;2022-08-24T12:10:30;100629.38;;;26.25;100.00
55761;BME280;41679;51.440;-2.012;2022-08-24T12:13:25;100625.88;;;26.52;100.00
55761;BME280;41679;51.440;-2.012;2022-08-24T12:15:59;100624.88;;;26.29;100.00
55761;BME280;41679;51.440;-2.012;2022-08-24T12:21:16;100632.59;;;26.32;100.00
55761;BME280;41679;51.440;-2.012;2022-08-24T12:23:46;100634.38;;;26.42;100.00
55761;BME280;41679;51.440;-2.012;2022-08-24T12:31:55;100634.41;;;25.71;100.00
55761;BME280;41679;51.440;-2.012;2022-08-24T12:37:36;100646.22;;;25.63;100.00
55761;BME280;41679;51.440;-2.012;2022-08-24T12:40:11;100630.88;;;25.47;100.00
55761;BME280;41679;51.440;-2.012;2022-08-24T12:45:17;100635.56;;;25.08;100.00
55761;BME280;41679;51.440;-2.012;2022-08-24T12:47:51;100628.94;;;25.04;100.00
55761;BME280;41679;51.440;-2.012;2022-08-24T12:50:40;100638.44;;;24.98;100.00
55761;BME280;41679;51.440;-2.012;2022-08-24T13:01:02;100638.69;;;25.64;100.00
55761;BME280;41679;51.440;-2.012;2022-08-24T13:03:38;100636.22;;;25.81;100.00
55761;BME280;41679;51.440;-2.012;2022-08-24T13:06:09;100639.72;;;25.68;100.00
55761;BME280;41679;51.440;-2.012;2022-08-24T13:08:36;100641.41;;;25.50;100.00
55761;BME280;41679;51.440;-2.012;2022-08-24T13:21:56;100658.91;;;26.07;100.00
55761;BME280;41679;51.440;-2.012;2022-08-24T13:30:04;100665.78;;;26.42;100.00
55761;BME280;41679;51.440;-2.012;2022-08-24T13:32:44;100665.75;;;26.61;100.00
55761;BME280;41679;51.440;-2.012;2022-08-24T13:43:42;100664.38;;;25.56;100.00
55761;BME280;41679;51.440;-2.012;2022-08-24T13:46:21;100667.34;;;25.78;100.00
55761;BME280;41679;51.440;-2.012;2022-08-24T13:50:10;100674.53;;;25.84;100.00
55761;BME280;41679;51.440;-2.012;2022-08-24T13:54:58;100667.88;;;25.80;100.00
55761;BME280;41679;51.440;-2.012;2022-08-24T13:57:47;100664.38;;;25.74;100.00
55761;BME280;41679;51.440;-2.012;2022-08-24T14:00:34;100670.53;;;25.90;100.00
55761;BME280;41679;51.440;-2.012;2022-08-24T14:06:19;100671.41;;;26.24;100.00
55761;BME280;41679;51.440;-2.012;2022-08-24T14:08:51;100670.88;;;26.22;100.00
55761;BME280;41679;51.440;-2.012;2022-08-24T14:25:17;100666.19;;;26.03;100.00
55761;BME280;41679;51.440;-2.012;2022-08-24T14:46:24;100668.13;;;26.35;100.00
55761;BME280;41679;51.440;-2.012;2022-08-24T14:52:08;100661.75;;;25.64;100.00
55761;BME280;41679;51.440;-2.012;2022-08-24T15:00:10;100660.31;;;25.67;100.00
55761;BME280;41679;51.440;-2.012;2022-08-24T15:02:44;100658.13;;;25.64;100.00
55761;BME280;41679;51.440;-2.012;2022-08-24T15:08:04;100651.97;;;25.48;100.00
55761;BME280;41679;51.440;-2.012;2022-08-24T15:13:11;100652.53;;;25.50;100.00
55761;BME280;41679;51.440;-2.012;2022-08-24T15:15:52;100650.03;;;25.48;100.00
55761;BME280;41679;51.440;-2.012;2022-08-24T15:24:02;100646.19;;;25.44;100.00
55761;BME280;41679;51.440;-2.012;2022-08-24T15:26:50;100640.19;;;25.37;100.00
55761;BME280;41679;51.440;-2.012;2022-08-24T15:29:20;100650.69;;;25.40;100.00
55761;BME280;41679;51.440;-2.012;2022-08-24T15:34:42;100651.38;;;25.51;100.00
55761;BME280;41679;51.440;-2.012;2022-08-24T15:37:13;100652.72;;;25.53;100.00
55761;BME280;41679;51.440;-2.012;2022-08-24T15:39:40;100648.97;;;25.44;100.00
55761;BME280;41679;51.440;-2.012;2022-08-24T15:42:11;100652.72;;;25.53;100.00
55761;BME280;41679;51.440;-2.012;2022-08-24T15:44:39;100647.59;;;25.42;100.00
55761;BME280;41679;51.440;-2.012;2022-08-24T15:47:28;100649.75;;;25.50;100.00
55761;BME280;41679;51.440;-2.012;2022-08-24T15:49:58;100647.41;;;25.57;100.00
55761;BME280;41679;51.440;-2.012;2022-08-24T15:52:58;100645.00;;;25.69;100.00
55761;BME280;41679;51.440;-2.012;2022-08-24T15:55:46;100648.06;;;25.68;100.00
55761;BME280;41679;51.440;-2.012;2022-08-24T16:00:42;100652.19;;;25.51;100.00
55761;BME280;41679;51.440;-2.012;2022-08-24T16:08:54;100648.31;;;25.90;100.00
55761;BME280;41679;51.440;-2.012;2022-08-24T16:11:28;100651.84;;;26.29;100.00
55761;BME280;41679;51.440;-2.012;2022-08-24T16:13:54;100659.41;;;26.42;100.00
55761;BME280;41679;51.440;-2.012;2022-08-24T16:16:36;100655.25;;;26.26;100.00
55761;BME280;41679;51.440;-2.012;2022-08-24T16:19:06;100650.84;;;26.06;100.00
55761;BME280;41679;51.440;-2.012;2022-08-24T16:21:36;100653.66;;;25.87;100.00
55761;BME280;41679;51.440;-2.012;2022-08-24T16:26:52;100658.41;;;25.86;100.00
55761;BME280;41679;51.440;-2.012;2022-08-24T16:32:10;100654.22;;;25.65;100.00
55761;BME280;41679;51.440;-2.012;2022-08-24T16:34:37;100657.69;;;25.57;100.00
55761;BME280;41679;51.440;-2.012;2022-08-24T16:37:04;100658.50;;;25.57;100.00
55761;BME280;41679;51.440;-2.012;2022-08-24T16:39:30;100660.16;;;25.58;100.00
55761;BME280;41679;51.440;-2.012;2022-08-24T16:41:59;100656.91;;;25.32;100.00
55761;BME280;41679;51.440;-2.012;2022-08-24T16:44:27;100662.34;;;25.18;100.00
55761;BME280;41679;51.440;-2.012;2022-08-24T16:46:53;100657.81;;;25.03;100.00